Airfield :
LOGIN :

Register | Disclaimer

   EN    FR    IT 

 










Legend :    VFR   Marginal VFR   IFR   Intensive IFR   Very Intensive IFR
Visi :
Ceiling :
>= 8 km
>= 3000ft
5 to 8 km
1000 to 3000 ft
1500m to 5 km
500 to 1000 ft
800 to 1500m
200 to 500 ft
< 800m
< 200 ft
Symbols :   Thunderstorms  Fog  Heavy snow  Heavy precipitations  Wind > 20 kt
SIGMETs :     Misc.  Thunderstorms  Icing  Turbulence  Mountain Waves  Volcanic Ashes






- Airport Elevation : 782 ft
- IATA code : BGY


LIME - Orio al Serio International - Bergamo

CURRENT METAR :
  • 282020Z 14009KT 9999 FEW035CB SCT060 17/12 Q1009 NOSIG

EXPIRED METARs :
  • 281950Z 16007KT 130V200 9999 FEW035CB SCT050 18/13 Q1009 NOSIG
  • 281920Z 15004KT 120V180 9999 SCT035CB BKN090 18/14 Q1008 NOSIG
  • 281850Z 12008KT 9999 FEW035CB SCT050 19/13 Q1007 NOSIG
  • 281820Z 14004KT 110V180 9999 FEW035CB SCT040 19/15 Q1008 NOSIG
  • 281750Z 11006KT 060V120 9999 FEW040CB SCT070 19/15 Q1007 TEMPO 4000TSRA

TAF TAF LIME
Valid from the 28 at 18:00 until the 29 at 18:00 UTC


281700Z 2818/2918 12010KT 9999 SCT020
TEMPO 2818/2902 4000 TSRA



MET'MAP, your aeronautical weather chart ! - Copyright ORBIFLY December 2007 - Disclaimer

ORBIFLY MET'MAP TEAM :

Programming & Development : Alexandra Zaïnal
Original concept : Baudouin d'Aumeries
Technical & hardware support : Manuel Goepfert
Assistance : Marc-Olivier Méhu

Contact : metmap@orbifly.com




SOURCES & CREDITS :

   NOAA